sensor_id;sensor_type;location;lat;lon;timestamp;P1;durP1;ratioP1;P2;durP2;ratioP2
39098;SDS011;24844;52.380;7.018;2022-07-01T00:00:47;5.65;;;3.03;;
39098;SDS011;24844;52.380;7.018;2022-07-01T00:03:12;6.85;;;3.50;;
39098;SDS011;24844;52.380;7.018;2022-07-01T00:05:38;4.13;;;2.40;;
39098;SDS011;24844;52.380;7.018;2022-07-01T00:08:03;5.53;;;2.53;;
39098;SDS011;24844;52.380;7.018;2022-07-01T00:10:29;5.35;;;2.47;;
39098;SDS011;24844;52.380;7.018;2022-07-01T00:12:55;6.25;;;3.30;;
39098;SDS011;24844;52.380;7.018;2022-07-01T00:15:20;5.03;;;3.85;;
39098;SDS011;24844;52.380;7.018;2022-07-01T00:17:47;10.07;;;5.70;;
39098;SDS011;24844;52.380;7.018;2022-07-01T00:20:13;8.07;;;6.35;;
39098;SDS011;24844;52.380;7.018;2022-07-01T00:22:40;10.60;;;7.30;;
39098;SDS011;24844;52.380;7.018;2022-07-01T00:25:06;8.57;;;7.15;;
39098;SDS011;24844;52.380;7.018;2022-07-01T00:27:32;10.70;;;8.68;;
39098;SDS011;24844;52.380;7.018;2022-07-01T00:30:01;9.48;;;7.75;;
39098;SDS011;24844;52.380;7.018;2022-07-01T00:32:26;11.70;;;9.00;;
39098;SDS011;24844;52.380;7.018;2022-07-01T00:34:52;9.07;;;7.85;;
39098;SDS011;24844;52.380;7.018;2022-07-01T00:37:18;11.93;;;9.45;;
39098;SDS011;24844;52.380;7.018;2022-07-01T00:39:44;12.05;;;8.82;;
39098;SDS011;24844;52.380;7.018;2022-07-01T00:42:10;13.27;;;8.93;;
39098;SDS011;24844;52.380;7.018;2022-07-01T00:44:35;14.15;;;10.27;;
39098;SDS011;24844;52.380;7.018;2022-07-01T00:47:02;8.80;;;7.72;;
39098;SDS011;24844;52.380;7.018;2022-07-01T00:49:28;12.13;;;9.75;;
39098;SDS011;24844;52.380;7.018;2022-07-01T00:51:54;14.98;;;11.95;;
39098;SDS011;24844;52.380;7.018;2022-07-01T00:54:20;13.57;;;10.93;;
39098;SDS011;24844;52.380;7.018;2022-07-01T00:56:46;17.30;;;13.75;;
39098;SDS011;24844;52.380;7.018;2022-07-01T00:59:13;15.10;;;11.93;;
39098;SDS011;24844;52.380;7.018;2022-07-01T01:01:39;16.38;;;12.32;;
39098;SDS011;24844;52.380;7.018;2022-07-01T01:04:06;13.68;;;10.52;;
39098;SDS011;24844;52.380;7.018;2022-07-01T01:06:31;14.70;;;10.85;;
39098;SDS011;24844;52.380;7.018;2022-07-01T01:08:58;18.00;;;13.30;;
39098;SDS011;24844;52.380;7.018;2022-07-01T01:11:23;16.70;;;12.95;;
39098;SDS011;24844;52.380;7.018;2022-07-01T01:13:50;25.10;;;15.77;;
39098;SDS011;24844;52.380;7.018;2022-07-01T01:16:19;18.77;;;15.48;;
39098;SDS011;24844;52.380;7.018;2022-07-01T01:18:46;21.02;;;15.90;;
39098;SDS011;24844;52.380;7.018;2022-07-01T01:21:12;20.38;;;15.55;;
39098;SDS011;24844;52.380;7.018;2022-07-01T01:23:38;20.13;;;15.82;;
39098;SDS011;24844;52.380;7.018;2022-07-01T01:26:04;19.58;;;14.70;;
39098;SDS011;24844;52.380;7.018;2022-07-01T01:28:39;20.73;;;16.02;;
39098;SDS011;24844;52.380;7.018;2022-07-01T01:31:05;22.27;;;16.75;;
39098;SDS011;24844;52.380;7.018;2022-07-01T01:33:30;18.20;;;14.75;;
39098;SDS011;24844;52.380;7.018;2022-07-01T01:35:56;24.38;;;17.25;;
39098;SDS011;24844;52.380;7.018;2022-07-01T01:38:21;22.90;;;17.10;;
39098;SDS011;24844;52.380;7.018;2022-07-01T01:40:47;22.65;;;15.82;;
39098;SDS011;24844;52.380;7.018;2022-07-01T01:43:13;20.48;;;15.93;;
39098;SDS011;24844;52.380;7.018;2022-07-01T01:45:39;24.08;;;16.65;;
39098;SDS011;24844;52.380;7.018;2022-07-01T01:48:05;21.48;;;16.83;;
39098;SDS011;24844;52.380;7.018;2022-07-01T01:50:31;22.02;;;16.40;;
39098;SDS011;24844;52.380;7.018;2022-07-01T01:52:57;22.33;;;16.70;;
39098;SDS011;24844;52.380;7.018;2022-07-01T01:55:22;22.10;;;17.70;;
39098;SDS011;24844;52.380;7.018;2022-07-01T01:57:48;23.45;;;18.88;;
39098;SDS011;24844;52.380;7.018;2022-07-01T02:00:14;21.77;;;16.00;;
39098;SDS011;24844;52.380;7.018;2022-07-01T02:02:39;20.52;;;15.95;;
39098;SDS011;24844;52.380;7.018;2022-07-01T02:05:06;20.65;;;16.45;;
39098;SDS011;24844;52.380;7.018;2022-07-01T02:07:35;24.50;;;17.90;;
39098;SDS011;24844;52.380;7.018;2022-07-01T02:10:00;18.42;;;14.05;;
39098;SDS011;24844;52.380;7.018;2022-07-01T02:12:26;21.17;;;16.67;;
39098;SDS011;24844;52.380;7.018;2022-07-01T02:14:51;19.13;;;16.25;;
39098;SDS011;24844;52.380;7.018;2022-07-01T02:17:17;21.15;;;16.58;;
39098;SDS011;24844;52.380;7.018;2022-07-01T02:19:42;21.20;;;16.90;;
39098;SDS011;24844;52.380;7.018;2022-07-01T02:22:08;21.10;;;16.70;;
39098;SDS011;24844;52.380;7.018;2022-07-01T02:24:33;24.65;;;17.77;;
39098;SDS011;24844;52.380;7.018;2022-07-01T02:26:59;22.73;;;16.75;;
39098;SDS011;24844;52.380;7.018;2022-07-01T02:29:25;25.17;;;17.85;;
39098;SDS011;24844;52.380;7.018;2022-07-01T02:31:50;21.40;;;16.00;;
39098;SDS011;24844;52.380;7.018;2022-07-01T02:34:16;23.58;;;17.02;;
39098;SDS011;24844;52.380;7.018;2022-07-01T02:36:41;23.75;;;17.65;;
39098;SDS011;24844;52.380;7.018;2022-07-01T02:39:07;23.85;;;17.50;;
39098;SDS011;24844;52.380;7.018;2022-07-01T02:41:32;24.88;;;19.00;;
39098;SDS011;24844;52.380;7.018;2022-07-01T02:44:18;27.30;;;17.85;;
39098;SDS011;24844;52.380;7.018;2022-07-01T02:46:43;31.73;;;22.40;;
39098;SDS011;24844;52.380;7.018;2022-07-01T02:49:09;33.60;;;22.35;;
39098;SDS011;24844;52.380;7.018;2022-07-01T02:51:34;38.10;;;24.42;;
39098;SDS011;24844;52.380;7.018;2022-07-01T02:54:00;39.13;;;25.58;;
39098;SDS011;24844;52.380;7.018;2022-07-01T02:56:26;36.75;;;25.38;;
39098;SDS011;24844;52.380;7.018;2022-07-01T02:58:52;38.75;;;25.45;;
39098;SDS011;24844;52.380;7.018;2022-07-01T03:01:17;36.42;;;25.33;;
39098;SDS011;24844;52.380;7.018;2022-07-01T03:03:43;40.50;;;25.92;;
39098;SDS011;24844;52.380;7.018;2022-07-01T03:06:08;34.20;;;22.73;;
39098;SDS011;24844;52.380;7.018;2022-07-01T03:08:34;38.25;;;26.80;;
39098;SDS011;24844;52.380;7.018;2022-07-01T03:10:59;44.42;;;28.00;;
39098;SDS011;24844;52.380;7.018;2022-07-01T03:13:25;40.83;;;27.67;;
39098;SDS011;24844;52.380;7.018;2022-07-01T03:15:50;39.45;;;26.70;;
39098;SDS011;24844;52.380;7.018;2022-07-01T03:18:16;38.35;;;27.25;;
39098;SDS011;24844;52.380;7.018;2022-07-01T03:20:41;38.38;;;27.30;;
39098;SDS011;24844;52.380;7.018;2022-07-01T03:23:07;43.55;;;27.95;;
39098;SDS011;24844;52.380;7.018;2022-07-01T03:25:32;36.97;;;25.50;;
39098;SDS011;24844;52.380;7.018;2022-07-01T03:28:01;38.90;;;26.30;;
39098;SDS011;24844;52.380;7.018;2022-07-01T03:30:28;40.92;;;27.33;;
39098;SDS011;24844;52.380;7.018;2022-07-01T03:32:53;43.95;;;29.30;;
39098;SDS011;24844;52.380;7.018;2022-07-01T03:35:19;39.42;;;28.27;;
39098;SDS011;24844;52.380;7.018;2022-07-01T03:38:03;41.30;;;25.83;;
39098;SDS011;24844;52.380;7.018;2022-07-01T03:40:30;36.92;;;27.15;;
39098;SDS011;24844;52.380;7.018;2022-07-01T03:42:58;38.50;;;27.80;;
39098;SDS011;24844;52.380;7.018;2022-07-01T03:45:24;40.28;;;29.33;;
39098;SDS011;24844;52.380;7.018;2022-07-01T03:47:50;42.38;;;30.08;;
39098;SDS011;24844;52.380;7.018;2022-07-01T03:50:16;41.85;;;30.25;;
39098;SDS011;24844;52.380;7.018;2022-07-01T03:52:43;38.72;;;28.45;;
39098;SDS011;24844;52.380;7.018;2022-07-01T03:55:13;44.08;;;30.75;;
39098;SDS011;24844;52.380;7.018;2022-07-01T03:57:39;48.78;;;32.22;;
39098;SDS011;24844;52.380;7.018;2022-07-01T04:00:08;48.15;;;34.50;;
39098;SDS011;24844;52.380;7.018;2022-07-01T04:02:34;43.63;;;30.15;;
39098;SDS011;24844;52.380;7.018;2022-07-01T04:04:59;49.75;;;34.83;;
39098;SDS011;24844;52.380;7.018;2022-07-01T04:07:25;51.30;;;34.47;;
39098;SDS011;24844;52.380;7.018;2022-07-01T04:09:51;54.33;;;36.03;;
39098;SDS011;24844;52.380;7.018;2022-07-01T04:12:17;47.30;;;32.95;;
39098;SDS011;24844;52.380;7.018;2022-07-01T04:14:43;47.05;;;33.55;;
39098;SDS011;24844;52.380;7.018;2022-07-01T04:17:09;47.50;;;32.90;;
39098;SDS011;24844;52.380;7.018;2022-07-01T04:19:36;55.70;;;38.35;;
39098;SDS011;24844;52.380;7.018;2022-07-01T04:22:02;53.03;;;35.47;;
39098;SDS011;24844;52.380;7.018;2022-07-01T04:24:57;48.10;;;34.65;;
39098;SDS011;24844;52.380;7.018;2022-07-01T04:27:23;45.67;;;32.72;;
39098;SDS011;24844;52.380;7.018;2022-07-01T04:29:48;46.35;;;33.22;;
39098;SDS011;24844;52.380;7.018;2022-07-01T04:32:14;46.53;;;33.33;;
39098;SDS011;24844;52.380;7.018;2022-07-01T04:34:39;42.95;;;32.17;;
39098;SDS011;24844;52.380;7.018;2022-07-01T04:37:05;46.65;;;32.72;;
39098;SDS011;24844;52.380;7.018;2022-07-01T04:39:30;55.05;;;40.03;;
39098;SDS011;24844;52.380;7.018;2022-07-01T04:41:56;51.78;;;38.08;;
39098;SDS011;24844;52.380;7.018;2022-07-01T04:44:24;47.45;;;36.20;;
39098;SDS011;24844;52.380;7.018;2022-07-01T04:46:57;53.40;;;38.90;;
39098;SDS011;24844;52.380;7.018;2022-07-01T04:49:23;49.25;;;37.40;;
39098;SDS011;24844;52.380;7.018;2022-07-01T04:51:49;51.25;;;35.67;;
39098;SDS011;24844;52.380;7.018;2022-07-01T04:54:15;50.65;;;38.20;;
39098;SDS011;24844;52.380;7.018;2022-07-01T04:56:41;59.97;;;42.78;;
39098;SDS011;24844;52.380;7.018;2022-07-01T04:59:07;53.67;;;38.20;;
39098;SDS011;24844;52.380;7.018;2022-07-01T05:01:32;61.50;;;43.50;;
39098;SDS011;24844;52.380;7.018;2022-07-01T05:03:59;59.72;;;42.13;;
39098;SDS011;24844;52.380;7.018;2022-07-01T05:06:25;56.90;;;38.35;;
39098;SDS011;24844;52.380;7.018;2022-07-01T05:08:50;57.50;;;39.05;;
39098;SDS011;24844;52.380;7.018;2022-07-01T05:11:16;58.00;;;41.67;;
39098;SDS011;24844;52.380;7.018;2022-07-01T05:13:42;64.90;;;42.42;;
39098;SDS011;24844;52.380;7.018;2022-07-01T05:16:08;50.97;;;37.15;;
39098;SDS011;24844;52.380;7.018;2022-07-01T05:18:35;56.92;;;41.03;;
39098;SDS011;24844;52.380;7.018;2022-07-01T05:21:20;55.20;;;39.58;;
39098;SDS011;24844;52.380;7.018;2022-07-01T05:24:05;57.90;;;40.40;;
39098;SDS011;24844;52.380;7.018;2022-07-01T05:26:31;55.83;;;40.83;;
39098;SDS011;24844;52.380;7.018;2022-07-01T05:28:56;57.88;;;41.65;;
39098;SDS011;24844;52.380;7.018;2022-07-01T05:31:22;56.95;;;39.92;;
39098;SDS011;24844;52.380;7.018;2022-07-01T05:33:48;49.13;;;37.17;;
39098;SDS011;24844;52.380;7.018;2022-07-01T05:36:14;48.75;;;36.17;;
39098;SDS011;24844;52.380;7.018;2022-07-01T05:38:40;49.80;;;38.20;;
39098;SDS011;24844;52.380;7.018;2022-07-01T05:41:05;46.90;;;35.92;;
39098;SDS011;24844;52.380;7.018;2022-07-01T05:43:31;42.38;;;33.55;;
39098;SDS011;24844;52.380;7.018;2022-07-01T05:45:57;47.42;;;34.65;;
39098;SDS011;24844;52.380;7.018;2022-07-01T05:48:23;47.75;;;34.63;;
39098;SDS011;24844;52.380;7.018;2022-07-01T05:50:49;50.25;;;38.08;;
39098;SDS011;24844;52.380;7.018;2022-07-01T05:53:15;43.67;;;35.25;;
39098;SDS011;24844;52.380;7.018;2022-07-01T05:55:41;43.67;;;34.63;;
39098;SDS011;24844;52.380;7.018;2022-07-01T05:58:07;41.88;;;33.28;;
39098;SDS011;24844;52.380;7.018;2022-07-01T06:00:33;43.03;;;35.47;;
39098;SDS011;24844;52.380;7.018;2022-07-01T06:02:59;39.60;;;32.88;;
39098;SDS011;24844;52.380;7.018;2022-07-01T06:05:25;43.55;;;35.00;;
39098;SDS011;24844;52.380;7.018;2022-07-01T06:07:51;36.55;;;29.73;;
39098;SDS011;24844;52.380;7.018;2022-07-01T06:10:16;35.92;;;30.45;;
39098;SDS011;24844;52.380;7.018;2022-07-01T06:12:42;39.03;;;31.65;;
39098;SDS011;24844;52.380;7.018;2022-07-01T06:15:09;40.45;;;31.90;;
39098;SDS011;24844;52.380;7.018;2022-07-01T06:17:36;37.75;;;31.55;;
39098;SDS011;24844;52.380;7.018;2022-07-01T06:20:03;34.35;;;30.60;;
39098;SDS011;24844;52.380;7.018;2022-07-01T06:22:30;33.47;;;29.88;;
39098;SDS011;24844;52.380;7.018;2022-07-01T06:24:56;38.22;;;30.20;;
39098;SDS011;24844;52.380;7.018;2022-07-01T06:27:22;32.58;;;26.98;;
39098;SDS011;24844;52.380;7.018;2022-07-01T06:29:48;31.30;;;27.73;;
39098;SDS011;24844;52.380;7.018;2022-07-01T06:32:14;30.50;;;26.60;;
39098;SDS011;24844;52.380;7.018;2022-07-01T06:34:40;35.95;;;28.70;;
39098;SDS011;24844;52.380;7.018;2022-07-01T06:37:05;28.55;;;24.67;;
39098;SDS011;24844;52.380;7.018;2022-07-01T06:39:31;31.38;;;27.13;;
39098;SDS011;24844;52.380;7.018;2022-07-01T06:41:56;30.75;;;26.20;;
39098;SDS011;24844;52.380;7.018;2022-07-01T06:44:22;30.98;;;24.75;;
39098;SDS011;24844;52.380;7.018;2022-07-01T06:46:48;34.38;;;27.25;;
39098;SDS011;24844;52.380;7.018;2022-07-01T06:49:13;30.02;;;26.20;;
39098;SDS011;24844;52.380;7.018;2022-07-01T06:51:39;29.00;;;24.67;;
39098;SDS011;24844;52.380;7.018;2022-07-01T06:54:05;28.02;;;22.35;;
39098;SDS011;24844;52.380;7.018;2022-07-01T06:56:31;29.45;;;22.50;;
39098;SDS011;24844;52.380;7.018;2022-07-01T06:58:56;25.85;;;23.00;;
39098;SDS011;24844;52.380;7.018;2022-07-01T07:01:22;27.08;;;22.48;;
39098;SDS011;24844;52.380;7.018;2022-07-01T07:03:48;29.92;;;21.65;;
39098;SDS011;24844;52.380;7.018;2022-07-01T07:06:14;25.55;;;21.73;;
39098;SDS011;24844;52.380;7.018;2022-07-01T07:08:40;25.95;;;20.75;;
39098;SDS011;24844;52.380;7.018;2022-07-01T07:11:05;26.65;;;20.67;;
39098;SDS011;24844;52.380;7.018;2022-07-01T07:13:33;26.00;;;21.67;;
39098;SDS011;24844;52.380;7.018;2022-07-01T07:16:00;23.02;;;19.95;;
39098;SDS011;24844;52.380;7.018;2022-07-01T07:18:26;27.67;;;21.52;;
39098;SDS011;24844;52.380;7.018;2022-07-01T07:20:52;19.42;;;16.95;;
39098;SDS011;24844;52.380;7.018;2022-07-01T07:23:18;28.25;;;19.92;;
39098;SDS011;24844;52.380;7.018;2022-07-01T07:25:43;20.42;;;17.52;;
39098;SDS011;24844;52.380;7.018;2022-07-01T07:28:09;20.30;;;17.70;;
39098;SDS011;24844;52.380;7.018;2022-07-01T07:30:35;22.25;;;16.98;;
39098;SDS011;24844;52.380;7.018;2022-07-01T07:33:00;17.35;;;14.85;;
39098;SDS011;24844;52.380;7.018;2022-07-01T07:35:26;19.25;;;14.57;;
39098;SDS011;24844;52.380;7.018;2022-07-01T07:37:51;17.05;;;14.63;;
39098;SDS011;24844;52.380;7.018;2022-07-01T07:40:17;17.27;;;13.88;;
39098;SDS011;24844;52.380;7.018;2022-07-01T07:42:46;17.55;;;15.13;;
39098;SDS011;24844;52.380;7.018;2022-07-01T07:45:12;15.73;;;13.77;;
39098;SDS011;24844;52.380;7.018;2022-07-01T07:47:41;14.50;;;12.15;;
39098;SDS011;24844;52.380;7.018;2022-07-01T07:50:09;17.73;;;14.70;;
39098;SDS011;24844;52.380;7.018;2022-07-01T07:52:35;17.10;;;14.40;;
39098;SDS011;24844;52.380;7.018;2022-07-01T07:55:00;14.05;;;11.77;;
39098;SDS011;24844;52.380;7.018;2022-07-01T07:57:27;15.68;;;11.82;;
39098;SDS011;24844;52.380;7.018;2022-07-01T07:59:52;12.45;;;11.13;;
39098;SDS011;24844;52.380;7.018;2022-07-01T08:02:18;11.88;;;10.23;;
39098;SDS011;24844;52.380;7.018;2022-07-01T08:04:43;10.95;;;9.63;;
39098;SDS011;24844;52.380;7.018;2022-07-01T08:07:09;10.50;;;9.00;;
39098;SDS011;24844;52.380;7.018;2022-07-01T08:09:34;9.68;;;8.18;;
39098;SDS011;24844;52.380;7.018;2022-07-01T08:12:00;11.45;;;8.38;;
39098;SDS011;24844;52.380;7.018;2022-07-01T08:14:27;9.75;;;7.80;;
39098;SDS011;24844;52.380;7.018;2022-07-01T08:16:52;9.20;;;6.85;;
39098;SDS011;24844;52.380;7.018;2022-07-01T08:19:18;7.43;;;6.03;;
39098;SDS011;24844;52.380;7.018;2022-07-01T08:21:44;9.10;;;6.22;;
39098;SDS011;24844;52.380;7.018;2022-07-01T08:24:10;11.25;;;6.63;;
39098;SDS011;24844;52.380;7.018;2022-07-01T08:26:35;10.55;;;6.40;;
39098;SDS011;24844;52.380;7.018;2022-07-01T08:29:01;11.98;;;6.82;;
39098;SDS011;24844;52.380;7.018;2022-07-01T08:31:27;9.90;;;5.93;;
39098;SDS011;24844;52.380;7.018;2022-07-01T08:33:52;13.63;;;6.22;;
39098;SDS011;24844;52.380;7.018;2022-07-01T08:36:18;7.05;;;5.40;;
39098;SDS011;24844;52.380;7.018;2022-07-01T08:38:43;6.80;;;4.82;;
39098;SDS011;24844;52.380;7.018;2022-07-01T08:41:09;7.72;;;4.72;;
39098;SDS011;24844;52.380;7.018;2022-07-01T08:43:38;8.63;;;5.15;;
39098;SDS011;24844;52.380;7.018;2022-07-01T08:46:03;6.50;;;4.63;;
39098;SDS011;24844;52.380;7.018;2022-07-01T08:48:29;5.90;;;4.10;;
39098;SDS011;24844;52.380;7.018;2022-07-01T08:50:55;8.50;;;5.13;;
39098;SDS011;24844;52.380;7.018;2022-07-01T08:53:21;6.07;;;4.10;;
39098;SDS011;24844;52.380;7.018;2022-07-01T08:55:46;10.95;;;7.07;;
39098;SDS011;24844;52.380;7.018;2022-07-01T08:58:30;7.32;;;5.45;;
39098;SDS011;24844;52.380;7.018;2022-07-01T09:01:12;9.63;;;5.25;;
39098;SDS011;24844;52.380;7.018;2022-07-01T09:03:39;8.32;;;5.28;;
39098;SDS011;24844;52.380;7.018;2022-07-01T09:06:10;10.30;;;6.18;;
39098;SDS011;24844;52.380;7.018;2022-07-01T09:08:39;5.03;;;4.10;;
39098;SDS011;24844;52.380;7.018;2022-07-01T09:11:26;7.40;;;5.63;;
39098;SDS011;24844;52.380;7.018;2022-07-01T09:14:10;7.45;;;5.65;;
39098;SDS011;24844;52.380;7.018;2022-07-01T09:19:16;6.03;;;5.15;;
39098;SDS011;24844;52.380;7.018;2022-07-01T09:21:47;8.23;;;5.20;;
39098;SDS011;24844;52.380;7.018;2022-07-01T09:24:32;9.40;;;5.50;;
39098;SDS011;24844;52.380;7.018;2022-07-01T09:29:29;7.13;;;4.88;;
39098;SDS011;24844;52.380;7.018;2022-07-01T09:31:56;10.77;;;6.15;;
39098;SDS011;24844;52.380;7.018;2022-07-01T09:34:22;9.48;;;5.57;;
39098;SDS011;24844;52.380;7.018;2022-07-01T09:36:55;7.53;;;4.47;;
39098;SDS011;24844;52.380;7.018;2022-07-01T09:39:21;6.43;;;4.47;;
39098;SDS011;24844;52.380;7.018;2022-07-01T09:41:47;9.40;;;5.30;;
39098;SDS011;24844;52.380;7.018;2022-07-01T09:44:13;5.90;;;4.40;;
39098;SDS011;24844;52.380;7.018;2022-07-01T09:46:50;6.65;;;4.32;;
39098;SDS011;24844;52.380;7.018;2022-07-01T09:49:17;6.80;;;4.20;;
39098;SDS011;24844;52.380;7.018;2022-07-01T09:51:43;6.40;;;4.40;;
39098;SDS011;24844;52.380;7.018;2022-07-01T09:54:10;4.93;;;3.42;;
39098;SDS011;24844;52.380;7.018;2022-07-01T09:56:37;12.25;;;5.72;;
39098;SDS011;24844;52.380;7.018;2022-07-01T09:59:03;5.65;;;3.95;;
39098;SDS011;24844;52.380;7.018;2022-07-01T10:01:29;4.88;;;3.72;;
39098;SDS011;24844;52.380;7.018;2022-07-01T10:03:57;6.68;;;4.20;;
39098;SDS011;24844;52.380;7.018;2022-07-01T10:06:34;7.88;;;4.80;;
39098;SDS011;24844;52.380;7.018;2022-07-01T10:09:47;5.97;;;3.65;;
39098;SDS011;24844;52.380;7.018;2022-07-01T10:12:41;8.38;;;4.22;;
39098;SDS011;24844;52.380;7.018;2022-07-01T10:15:11;9.30;;;5.15;;
39098;SDS011;24844;52.380;7.018;2022-07-01T10:17:42;8.48;;;4.68;;
39098;SDS011;24844;52.380;7.018;2022-07-01T10:20:11;7.15;;;4.47;;
39098;SDS011;24844;52.380;7.018;2022-07-01T10:22:38;5.55;;;3.10;;
39098;SDS011;24844;52.380;7.018;2022-07-01T10:28:14;5.75;;;3.75;;
39098;SDS011;24844;52.380;7.018;2022-07-01T10:33:38;5.22;;;3.97;;
39098;SDS011;24844;52.380;7.018;2022-07-01T10:44:23;6.20;;;4.53;;
39098;SDS011;24844;52.380;7.018;2022-07-01T10:52:05;8.47;;;3.93;;
39098;SDS011;24844;52.380;7.018;2022-07-01T10:59:48;5.68;;;3.30;;
39098;SDS011;24844;52.380;7.018;2022-07-01T11:02:40;4.57;;;3.10;;
39098;SDS011;24844;52.380;7.018;2022-07-01T11:05:10;4.78;;;4.25;;
39098;SDS011;24844;52.380;7.018;2022-07-01T11:07:38;6.22;;;3.85;;
39098;SDS011;24844;52.380;7.018;2022-07-01T11:10:07;4.82;;;3.83;;
39098;SDS011;24844;52.380;7.018;2022-07-01T11:15:01;7.25;;;4.68;;
39098;SDS011;24844;52.380;7.018;2022-07-01T11:17:28;6.43;;;4.78;;
39098;SDS011;24844;52.380;7.018;2022-07-01T11:19:54;8.18;;;4.60;;
39098;SDS011;24844;52.380;7.018;2022-07-01T11:22:24;6.05;;;4.30;;
39098;SDS011;24844;52.380;7.018;2022-07-01T11:24:52;6.03;;;4.82;;
39098;SDS011;24844;52.380;7.018;2022-07-01T11:27:18;7.63;;;4.50;;
39098;SDS011;24844;52.380;7.018;2022-07-01T11:29:44;5.18;;;3.65;;
39098;SDS011;24844;52.380;7.018;2022-07-01T11:32:09;5.18;;;3.65;;
39098;SDS011;24844;52.380;7.018;2022-07-01T11:34:36;5.00;;;3.30;;
39098;SDS011;24844;52.380;7.018;2022-07-01T11:37:08;3.97;;;3.25;;
39098;SDS011;24844;52.380;7.018;2022-07-01T11:40:07;4.10;;;3.67;;
39098;SDS011;24844;52.380;7.018;2022-07-01T11:42:34;4.32;;;3.33;;
39098;SDS011;24844;52.380;7.018;2022-07-01T11:45:00;5.68;;;3.67;;
39098;SDS011;24844;52.380;7.018;2022-07-01T11:47:26;3.70;;;2.65;;
39098;SDS011;24844;52.380;7.018;2022-07-01T11:49:53;4.65;;;2.75;;
39098;SDS011;24844;52.380;7.018;2022-07-01T11:52:19;7.25;;;3.47;;
39098;SDS011;24844;52.380;7.018;2022-07-01T11:54:50;3.65;;;2.10;;
39098;SDS011;24844;52.380;7.018;2022-07-01T11:57:18;6.30;;;2.90;;
39098;SDS011;24844;52.380;7.018;2022-07-01T11:59:45;4.68;;;2.58;;
39098;SDS011;24844;52.380;7.018;2022-07-01T12:02:12;4.25;;;2.80;;
39098;SDS011;24844;52.380;7.018;2022-07-01T12:04:38;4.97;;;2.67;;
39098;SDS011;24844;52.380;7.018;2022-07-01T12:07:05;4.43;;;2.28;;
39098;SDS011;24844;52.380;7.018;2022-07-01T12:09:31;4.68;;;2.25;;
39098;SDS011;24844;52.380;7.018;2022-07-01T12:11:56;5.13;;;2.42;;
39098;SDS011;24844;52.380;7.018;2022-07-01T12:14:23;3.60;;;1.90;;
39098;SDS011;24844;52.380;7.018;2022-07-01T12:16:52;4.05;;;2.30;;
39098;SDS011;24844;52.380;7.018;2022-07-01T12:19:18;3.72;;;2.22;;
39098;SDS011;24844;52.380;7.018;2022-07-01T12:21:48;4.88;;;2.40;;
39098;SDS011;24844;52.380;7.018;2022-07-01T12:24:19;4.97;;;1.88;;
39098;SDS011;24844;52.380;7.018;2022-07-01T12:26:48;4.80;;;1.80;;
39098;SDS011;24844;52.380;7.018;2022-07-01T12:29:16;4.65;;;1.63;;
39098;SDS011;24844;52.380;7.018;2022-07-01T12:31:43;2.53;;;1.40;;
39098;SDS011;24844;52.380;7.018;2022-07-01T12:34:09;2.22;;;1.55;;
39098;SDS011;24844;52.380;7.018;2022-07-01T12:36:34;2.00;;;1.38;;
39098;SDS011;24844;52.380;7.018;2022-07-01T12:39:04;4.43;;;1.77;;
39098;SDS011;24844;52.380;7.018;2022-07-01T12:41:32;3.35;;;1.40;;
39098;SDS011;24844;52.380;7.018;2022-07-01T12:46:26;5.03;;;1.77;;
39098;SDS011;24844;52.380;7.018;2022-07-01T12:48:55;4.43;;;1.23;;
39098;SDS011;24844;52.380;7.018;2022-07-01T12:51:27;6.93;;;1.80;;
39098;SDS011;24844;52.380;7.018;2022-07-01T12:53:54;5.93;;;1.85;;
39098;SDS011;24844;52.380;7.018;2022-07-01T12:56:23;4.03;;;1.80;;
39098;SDS011;24844;52.380;7.018;2022-07-01T12:58:51;7.45;;;1.92;;
39098;SDS011;24844;52.380;7.018;2022-07-01T13:01:17;3.15;;;2.10;;
39098;SDS011;24844;52.380;7.018;2022-07-01T13:03:44;4.75;;;1.95;;
39098;SDS011;24844;52.380;7.018;2022-07-01T13:06:10;4.18;;;1.33;;
39098;SDS011;24844;52.380;7.018;2022-07-01T13:08:35;4.00;;;1.40;;
39098;SDS011;24844;52.380;7.018;2022-07-01T13:11:01;4.28;;;1.33;;
39098;SDS011;24844;52.380;7.018;2022-07-01T13:13:26;4.82;;;1.60;;
39098;SDS011;24844;52.380;7.018;2022-07-01T13:15:52;6.78;;;1.10;;
39098;SDS011;24844;52.380;7.018;2022-07-01T13:18:18;3.03;;;1.30;;
39098;SDS011;24844;52.380;7.018;2022-07-01T13:20:43;3.60;;;1.25;;
39098;SDS011;24844;52.380;7.018;2022-07-01T13:23:11;8.85;;;1.05;;
39098;SDS011;24844;52.380;7.018;2022-07-01T13:25:36;3.65;;;1.05;;
39098;SDS011;24844;52.380;7.018;2022-07-01T13:28:03;1.55;;;1.00;;
39098;SDS011;24844;52.380;7.018;2022-07-01T13:30:29;5.28;;;0.90;;
39098;SDS011;24844;52.380;7.018;2022-07-01T13:32:54;5.72;;;0.95;;
39098;SDS011;24844;52.380;7.018;2022-07-01T13:35:21;3.15;;;0.82;;
39098;SDS011;24844;52.380;7.018;2022-07-01T13:37:47;2.63;;;0.65;;
39098;SDS011;24844;52.380;7.018;2022-07-01T13:40:14;2.20;;;0.73;;
39098;SDS011;24844;52.380;7.018;2022-07-01T13:42:40;4.35;;;0.70;;
39098;SDS011;24844;52.380;7.018;2022-07-01T13:45:06;2.15;;;0.50;;
39098;SDS011;24844;52.380;7.018;2022-07-01T13:47:32;2.05;;;0.40;;
39098;SDS011;24844;52.380;7.018;2022-07-01T13:49:58;2.58;;;0.65;;
39098;SDS011;24844;52.380;7.018;2022-07-01T13:52:24;2.42;;;0.60;;
39098;SDS011;24844;52.380;7.018;2022-07-01T13:54:49;2.60;;;0.80;;
39098;SDS011;24844;52.380;7.018;2022-07-01T13:57:15;1.83;;;0.45;;
39098;SDS011;24844;52.380;7.018;2022-07-01T13:59:41;2.40;;;0.73;;
39098;SDS011;24844;52.380;7.018;2022-07-01T14:02:10;2.22;;;0.80;;
39098;SDS011;24844;52.380;7.018;2022-07-01T14:07:01;1.65;;;0.63;;
39098;SDS011;24844;52.380;7.018;2022-07-01T14:09:26;5.57;;;0.93;;
39098;SDS011;24844;52.380;7.018;2022-07-01T14:11:52;5.88;;;0.60;;
39098;SDS011;24844;52.380;7.018;2022-07-01T14:14:17;3.63;;;0.70;;
39098;SDS011;24844;52.380;7.018;2022-07-01T14:16:43;0.95;;;0.60;;
39098;SDS011;24844;52.380;7.018;2022-07-01T14:19:08;2.10;;;0.57;;
39098;SDS011;24844;52.380;7.018;2022-07-01T14:21:34;2.15;;;0.47;;
39098;SDS011;24844;52.380;7.018;2022-07-01T14:24:02;2.58;;;0.70;;
39098;SDS011;24844;52.380;7.018;2022-07-01T14:26:31;2.95;;;0.80;;
39098;SDS011;24844;52.380;7.018;2022-07-01T14:28:56;3.53;;;0.68;;
39098;SDS011;24844;52.380;7.018;2022-07-01T14:31:22;2.80;;;0.50;;
39098;SDS011;24844;52.380;7.018;2022-07-01T14:33:47;2.95;;;0.77;;
39098;SDS011;24844;52.380;7.018;2022-07-01T14:36:13;3.20;;;0.93;;
39098;SDS011;24844;52.380;7.018;2022-07-01T14:38:39;2.28;;;0.80;;
39098;SDS011;24844;52.380;7.018;2022-07-01T14:41:05;3.40;;;1.00;;
39098;SDS011;24844;52.380;7.018;2022-07-01T14:43:30;2.35;;;0.70;;
39098;SDS011;24844;52.380;7.018;2022-07-01T14:45:56;5.13;;;0.90;;
39098;SDS011;24844;52.380;7.018;2022-07-01T14:48:22;2.85;;;0.80;;
39098;SDS011;24844;52.380;7.018;2022-07-01T14:50:47;2.33;;;0.60;;
39098;SDS011;24844;52.380;7.018;2022-07-01T14:53:13;2.03;;;0.70;;
39098;SDS011;24844;52.380;7.018;2022-07-01T14:55:39;6.10;;;0.80;;
39098;SDS011;24844;52.380;7.018;2022-07-01T14:58:04;4.45;;;0.70;;
39098;SDS011;24844;52.380;7.018;2022-07-01T15:00:30;4.10;;;0.50;;
39098;SDS011;24844;52.380;7.018;2022-07-01T15:03:01;1.98;;;0.40;;
39098;SDS011;24844;52.380;7.018;2022-07-01T15:05:27;2.30;;;0.55;;
39098;SDS011;24844;52.380;7.018;2022-07-01T15:07:53;4.05;;;0.50;;
39098;SDS011;24844;52.380;7.018;2022-07-01T15:10:18;2.95;;;0.63;;